createdAt,value
2019-03-29T00:00:32.248Z,82.55
2019-03-29T00:02:59.285Z,83.64
2019-03-29T00:05:27.062Z,84.33
2019-03-29T00:07:54.874Z,83.35
2019-03-29T00:10:22.676Z,83.61
2019-03-29T00:12:50.462Z,84.52
2019-03-29T00:15:18.246Z,85.65
2019-03-29T00:17:46.042Z,85.06
2019-03-29T00:20:13.842Z,85.47
2019-03-29T00:22:41.661Z,85.59
2019-03-29T00:25:09.460Z,86.00
2019-03-29T00:27:37.244Z,85.83
2019-03-29T00:30:05.145Z,85.11
2019-03-29T00:32:32.944Z,84.67
2019-03-29T00:35:00.763Z,85.32
2019-03-29T00:37:28.541Z,85.01
2019-03-29T00:39:56.374Z,84.90
2019-03-29T00:42:24.162Z,85.55
2019-03-29T00:44:52.789Z,85.59
2019-03-29T00:47:19.756Z,85.53
2019-03-29T00:49:47.545Z,86.26
2019-03-29T00:52:15.326Z,86.79
2019-03-29T00:54:43.297Z,87.47
2019-03-29T00:57:11.079Z,87.58
2019-03-29T00:59:38.894Z,87.58
2019-03-29T01:02:06.681Z,87.00
2019-03-29T01:04:34.478Z,87.12
2019-03-29T01:07:02.275Z,87.22
2019-03-29T01:09:30.239Z,87.82
2019-03-29T01:11:57.890Z,88.75
2019-03-29T01:14:25.748Z,87.75
2019-03-29T01:16:53.965Z,88.25
2019-03-29T01:19:21.326Z,88.28
2019-03-29T01:21:49.122Z,87.88
2019-03-29T01:24:16.942Z,87.55
2019-03-29T01:26:44.738Z,87.18
2019-03-29T01:29:12.543Z,86.57
2019-03-29T01:31:40.968Z,86.53
2019-03-29T01:34:08.129Z,87.00
2019-03-29T01:36:35.906Z,87.09
2019-03-29T01:39:04.989Z,86.96
2019-03-29T01:41:32.786Z,87.79
2019-03-29T01:44:01.857Z,87.52
2019-03-29T01:46:28.386Z,87.30
2019-03-29T01:48:56.193Z,87.83
2019-03-29T01:51:23.985Z,87.89
2019-03-29T01:53:51.797Z,88.58
2019-03-29T01:56:19.611Z,88.49
2019-03-29T01:58:47.410Z,88.57
2019-03-29T02:01:15.331Z,89.62
2019-03-29T02:03:43.140Z,89.53
2019-03-29T02:06:10.910Z,90.22
2019-03-29T02:08:38.758Z,90.75
2019-03-29T02:11:06.581Z,90.45
2019-03-29T02:13:34.382Z,90.16
2019-03-29T02:16:02.170Z,90.80
2019-03-29T02:18:29.969Z,90.76
2019-03-29T02:20:57.763Z,90.39
2019-03-29T02:23:25.556Z,90.19
2019-03-29T02:25:53.421Z,90.09
2019-03-29T02:28:21.174Z,90.02
2019-03-29T02:30:49.123Z,89.40
2019-03-29T02:33:16.926Z,88.66
2019-03-29T02:35:44.701Z,89.54
2019-03-29T02:38:12.572Z,89.51
2019-03-29T02:40:40.335Z,88.44
2019-03-29T02:43:08.145Z,88.72
2019-03-29T02:45:35.936Z,89.08
2019-03-29T02:48:03.752Z,89.58
2019-03-29T02:50:31.531Z,88.94
2019-03-29T02:52:59.372Z,89.24
2019-03-29T02:55:27.158Z,90.10
2019-03-29T02:57:54.987Z,89.90
2019-03-29T03:00:22.754Z,89.39
2019-03-29T03:02:50.593Z,88.96
2019-03-29T03:05:18.378Z,89.19
2019-03-29T03:07:46.209Z,89.68
2019-03-29T03:10:13.992Z,89.18
2019-03-29T03:12:41.798Z,88.91
2019-03-29T03:15:09.647Z,89.82
2019-03-29T03:17:37.579Z,89.96
2019-03-29T03:20:07.060Z,89.78
2019-03-29T03:22:34.887Z,90.38
2019-03-29T03:25:02.706Z,90.17
2019-03-29T03:27:30.533Z,89.98
2019-03-29T03:29:58.327Z,90.42
2019-03-29T03:32:26.112Z,90.52
2019-03-29T03:34:53.946Z,91.18
2019-03-29T03:37:21.831Z,91.76
2019-03-29T03:39:49.602Z,91.84
2019-03-29T03:42:17.389Z,92.88
2019-03-29T03:44:45.203Z,92.62
2019-03-29T03:47:13.058Z,92.74
2019-03-29T03:49:40.921Z,92.61
2019-03-29T03:52:08.727Z,92.55
2019-03-29T03:54:36.598Z,92.60
2019-03-29T03:57:04.747Z,92.94
2019-03-29T03:59:32.584Z,92.72
2019-03-29T04:02:00.379Z,92.41
2019-03-29T04:04:28.270Z,92.80
2019-03-29T04:06:56.063Z,93.09
2019-03-29T04:09:23.874Z,92.86
2019-03-29T04:11:51.661Z,92.16
2019-03-29T04:14:19.478Z,92.40
2019-03-29T04:16:47.287Z,92.21
2019-03-29T04:19:15.119Z,92.48
2019-03-29T04:21:42.910Z,93.05
2019-03-29T04:24:10.743Z,91.89
2019-03-29T04:26:38.535Z,92.15
2019-03-29T04:29:06.355Z,91.11
2019-03-29T04:31:34.206Z,91.86
2019-03-29T04:34:01.990Z,92.27
2019-03-29T04:36:29.831Z,91.44
2019-03-29T04:38:57.606Z,90.42
2019-03-29T04:41:25.422Z,90.82
2019-03-29T04:43:53.202Z,91.41
2019-03-29T04:46:21.042Z,92.63
2019-03-29T04:48:48.830Z,93.15
2019-03-29T04:51:16.650Z,93.27
2019-03-29T04:53:44.441Z,94.67
2019-03-29T04:56:12.263Z,94.48
2019-03-29T04:58:40.054Z,95.05
2019-03-29T05:01:07.874Z,95.07
2019-03-29T05:03:35.658Z,95.65
2019-03-29T05:06:03.477Z,96.34
2019-03-29T05:08:31.257Z,95.78
2019-03-29T05:10:59.067Z,96.07
2019-03-29T05:13:26.857Z,95.26
2019-03-29T05:15:54.669Z,95.40
2019-03-29T05:18:22.460Z,95.16
2019-03-29T05:20:50.274Z,95.22
2019-03-29T05:23:18.201Z,94.50
2019-03-29T05:25:46.001Z,94.03
2019-03-29T05:28:13.801Z,94.20
2019-03-29T05:30:41.606Z,93.22
2019-03-29T05:33:09.402Z,94.33
2019-03-29T05:35:37.214Z,95.45
2019-03-29T05:38:05.005Z,95.31
2019-03-29T05:40:35.271Z,95.34
2019-03-29T05:43:00.617Z,95.54
2019-03-29T05:45:28.406Z,95.44
2019-03-29T05:47:56.352Z,95.26
2019-03-29T05:50:24.178Z,95.25
2019-03-29T05:52:52.681Z,94.36
2019-03-29T05:55:32.042Z,94.53
2019-03-29T05:57:48.941Z,95.00
2019-03-29T06:00:18.808Z,95.41
2019-03-29T06:02:46.638Z,94.11
2019-03-29T06:05:14.429Z,93.90
2019-03-29T06:07:42.354Z,92.98
2019-03-29T06:10:10.142Z,92.84
2019-03-29T06:12:37.954Z,93.15
2019-03-29T06:15:05.766Z,93.56
2019-03-29T06:17:33.586Z,93.68
2019-03-29T06:20:01.387Z,93.38
2019-03-29T06:22:29.197Z,92.78
2019-03-29T06:24:56.987Z,92.12
2019-03-29T06:27:24.810Z,91.39
2019-03-29T06:29:52.621Z,90.63
2019-03-29T06:32:20.439Z,90.54
2019-03-29T06:34:48.342Z,89.69
2019-03-29T06:37:16.503Z,89.23
2019-03-29T06:39:44.386Z,89.83
2019-03-29T06:42:12.203Z,89.67
2019-03-29T06:44:39.986Z,89.13
2019-03-29T06:47:07.833Z,87.46
2019-03-29T06:49:35.622Z,88.37
2019-03-29T06:52:03.409Z,87.03
2019-03-29T06:54:31.221Z,87.58
2019-03-29T06:56:59.141Z,86.34
2019-03-29T06:59:26.961Z,87.58
2019-03-29T07:01:54.780Z,86.23
2019-03-29T07:04:22.539Z,84.39
2019-03-29T07:06:50.338Z,84.38
2019-03-29T07:09:18.142Z,83.53
2019-03-29T07:11:45.955Z,83.39
2019-03-29T07:14:13.758Z,82.45
2019-03-29T07:16:41.559Z,82.75
2019-03-29T07:19:09.370Z,82.08
2019-03-29T07:21:37.163Z,81.94
2019-03-29T07:24:04.965Z,81.46
2019-03-29T07:26:32.767Z,82.00
2019-03-29T07:29:00.562Z,81.68
2019-03-29T07:31:28.353Z,81.73
2019-03-29T07:33:56.190Z,80.11
2019-03-29T07:36:24.178Z,81.38
2019-03-29T07:38:51.958Z,79.86
2019-03-29T07:41:30.943Z,80.72
2019-03-29T07:43:47.530Z,80.74
2019-03-29T07:46:15.324Z,78.56
2019-03-29T07:48:43.121Z,79.70
2019-03-29T07:51:11.019Z,79.72
2019-03-29T07:53:38.821Z,77.79
2019-03-29T07:56:06.642Z,77.92
2019-03-29T07:58:34.442Z,78.19
2019-03-29T08:01:02.243Z,78.62
2019-03-29T08:03:30.026Z,78.00
2019-03-29T08:05:57.878Z,77.97
2019-03-29T08:08:32.020Z,77.74
2019-03-29T08:10:54.058Z,77.62
2019-03-29T08:13:21.230Z,75.40
2019-03-29T08:15:49.026Z,75.41
2019-03-29T08:18:16.812Z,76.03
2019-03-29T08:20:44.904Z,74.90
2019-03-29T08:23:12.521Z,72.98
2019-03-29T08:25:40.328Z,74.27
2019-03-29T08:28:08.130Z,73.40
2019-03-29T08:30:35.926Z,73.33
2019-03-29T08:33:03.730Z,72.57
2019-03-29T08:35:31.557Z,70.66
2019-03-29T08:37:59.336Z,69.34
2019-03-29T08:40:27.138Z,69.52
2019-03-29T08:42:55.218Z,69.87
2019-03-29T08:45:23.010Z,70.69
2019-03-29T08:47:50.794Z,69.95
2019-03-29T08:50:18.646Z,68.74
2019-03-29T08:52:46.422Z,68.57
2019-03-29T08:55:17.289Z,68.76
2019-03-29T08:57:42.002Z,67.70
2019-03-29T09:00:09.885Z,67.74
2019-03-29T09:02:37.737Z,66.67
2019-03-29T09:05:05.618Z,65.64
2019-03-29T09:07:44.040Z,66.56
2019-03-29T09:10:01.196Z,64.90
2019-03-29T09:12:28.999Z,65.38
2019-03-29T09:14:56.789Z,66.01
2019-03-29T09:17:24.596Z,65.16
2019-03-29T09:19:52.386Z,64.67
2019-03-29T09:22:20.186Z,64.77
2019-03-29T09:24:47.970Z,62.87
2019-03-29T09:27:15.808Z,63.97
2019-03-29T09:29:43.607Z,63.28
2019-03-29T09:32:11.454Z,61.72
2019-03-29T09:34:39.242Z,63.49
2019-03-29T09:37:07.051Z,61.18
2019-03-29T09:39:34.842Z,60.19
2019-03-29T09:42:02.639Z,60.61
2019-03-29T09:44:30.425Z,59.16
2019-03-29T09:46:58.218Z,58.36
2019-03-29T09:49:26.006Z,58.30
2019-03-29T09:51:53.882Z,58.60
2019-03-29T09:54:21.680Z,58.98
2019-03-29T09:56:49.482Z,58.05
2019-03-29T09:59:17.263Z,61.62
2019-03-29T10:01:45.063Z,60.41
2019-03-29T10:04:12.842Z,58.01
2019-03-29T10:06:40.643Z,57.46
2019-03-29T10:09:08.447Z,58.24
2019-03-29T10:11:36.281Z,57.78
2019-03-29T10:14:04.138Z,58.33
2019-03-29T10:16:31.890Z,56.69
2019-03-29T10:18:59.674Z,57.08
2019-03-29T10:21:27.525Z,57.69
2019-03-29T10:23:55.410Z,55.85
2019-03-29T10:26:23.213Z,57.53
2019-03-29T10:28:51.015Z,54.03
2019-03-29T10:31:31.597Z,53.91
2019-03-29T10:33:49.080Z,54.69
2019-03-29T10:36:14.437Z,54.32
2019-03-29T10:38:42.218Z,53.72
2019-03-29T10:41:10.033Z,52.46
2019-03-29T10:43:37.857Z,52.53
2019-03-29T10:46:05.694Z,52.88
2019-03-29T10:48:33.478Z,53.58
2019-03-29T10:51:01.260Z,52.99
2019-03-29T10:53:29.212Z,53.22
2019-03-29T10:55:56.862Z,52.60
2019-03-29T10:58:24.661Z,53.76
2019-03-29T11:00:52.442Z,55.65
2019-03-29T11:03:20.250Z,53.75
2019-03-29T11:05:48.035Z,52.88
2019-03-29T11:08:15.838Z,53.73
2019-03-29T11:10:43.610Z,52.90
2019-03-29T11:13:13.588Z,52.43
2019-03-29T11:15:39.284Z,50.68
2019-03-29T11:18:07.109Z,50.58
2019-03-29T11:20:34.891Z,49.65
2019-03-29T11:23:02.693Z,52.00
2019-03-29T11:25:30.482Z,51.93
2019-03-29T11:27:58.330Z,49.78
2019-03-29T11:30:26.052Z,51.08
2019-03-29T11:32:53.846Z,51.14
2019-03-29T11:35:21.622Z,50.88
2019-03-29T11:37:49.430Z,48.34
2019-03-29T11:40:17.214Z,49.61
2019-03-29T11:42:45.022Z,48.64
2019-03-29T11:45:12.823Z,46.29
2019-03-29T11:47:40.638Z,48.50
2019-03-29T11:50:08.422Z,47.71
2019-03-29T11:52:36.262Z,47.64
2019-03-29T11:55:04.421Z,47.70
2019-03-29T11:57:32.234Z,48.32
2019-03-29T12:00:00.375Z,47.42
2019-03-29T12:02:31.408Z,47.91
2019-03-29T12:04:55.755Z,45.90
2019-03-29T12:07:23.546Z,45.71
2019-03-29T12:09:51.359Z,45.05
2019-03-29T12:12:19.182Z,44.29
2019-03-29T12:14:46.974Z,46.92
2019-03-29T12:17:14.788Z,45.29
2019-03-29T12:19:42.590Z,43.71
2019-03-29T12:22:10.415Z,45.80
2019-03-29T12:24:38.222Z,46.11
2019-03-29T12:27:06.030Z,47.24
2019-03-29T12:29:33.814Z,47.14
2019-03-29T12:32:01.623Z,46.93
2019-03-29T12:34:29.459Z,48.66
2019-03-29T12:36:57.256Z,48.62
2019-03-29T12:39:25.194Z,47.02
2019-03-29T12:41:52.994Z,48.78
2019-03-29T12:44:20.826Z,46.37
2019-03-29T12:46:48.674Z,47.27
2019-03-29T12:49:16.479Z,44.45
2019-03-29T12:51:46.606Z,45.93
2019-03-29T12:54:12.385Z,45.65
2019-03-29T12:56:39.962Z,45.93
2019-03-29T12:59:07.707Z,45.89
2019-03-29T13:01:40.609Z,47.04
2019-03-29T13:04:09.782Z,46.26
2019-03-29T13:06:35.965Z,48.06
2019-03-29T13:09:04.282Z,46.11
2019-03-29T13:11:32.090Z,47.04
2019-03-29T13:14:09.996Z,47.24
2019-03-29T13:16:27.820Z,47.17
2019-03-29T13:18:55.573Z,45.72
2019-03-29T13:21:23.377Z,46.50
2019-03-29T13:23:51.202Z,45.03
2019-03-29T13:26:19.022Z,44.38
2019-03-29T13:28:46.810Z,48.91
2019-03-29T13:31:14.710Z,46.88
2019-03-29T13:33:42.545Z,45.40
2019-03-29T13:36:10.350Z,44.81
2019-03-29T13:38:38.160Z,44.54
2019-03-29T13:41:07.156Z,44.93
2019-03-29T13:43:33.751Z,43.82
2019-03-29T13:46:01.594Z,44.59
2019-03-29T13:48:29.414Z,43.84
2019-03-29T13:50:59.459Z,43.34
2019-03-29T13:53:25.050Z,44.83
2019-03-29T13:55:52.907Z,46.06
2019-03-29T13:58:20.698Z,45.38
2019-03-29T14:00:48.582Z,43.04
2019-03-29T14:03:16.385Z,43.48
2019-03-29T14:05:44.191Z,44.21
2019-03-29T14:08:12.000Z,43.54
2019-03-29T14:10:39.791Z,43.72
2019-03-29T14:13:07.579Z,44.07
2019-03-29T14:15:35.366Z,43.95
2019-03-29T14:18:03.257Z,43.41
2019-03-29T14:20:32.141Z,44.26
2019-03-29T14:23:00.287Z,41.64
2019-03-29T14:25:28.063Z,41.79
2019-03-29T14:27:55.869Z,43.21
2019-03-29T14:30:23.662Z,45.40
2019-03-29T14:32:51.477Z,45.30
2019-03-29T14:35:19.263Z,44.36
2019-03-29T14:37:47.065Z,45.01
2019-03-29T14:40:14.854Z,43.36
2019-03-29T14:42:42.751Z,42.89
2019-03-29T14:45:10.569Z,43.22
2019-03-29T14:47:42.902Z,43.56
2019-03-29T14:50:06.350Z,44.70
2019-03-29T14:52:34.162Z,43.80
2019-03-29T14:55:01.986Z,43.60
2019-03-29T14:57:29.791Z,43.96
2019-03-29T14:59:57.586Z,42.76
2019-03-29T15:02:25.613Z,44.01
2019-03-29T15:04:53.399Z,43.97
2019-03-29T15:07:21.205Z,44.15
2019-03-29T15:09:49.046Z,43.12
2019-03-29T15:12:16.871Z,45.14
2019-03-29T15:14:44.658Z,44.20
2019-03-29T15:17:12.589Z,42.90
2019-03-29T15:19:40.392Z,44.70
2019-03-29T15:22:08.247Z,43.65
2019-03-29T15:24:36.068Z,44.00
2019-03-29T15:27:03.895Z,43.70
2019-03-29T15:29:31.682Z,43.40
2019-03-29T15:31:59.495Z,44.05
2019-03-29T15:34:27.270Z,44.30
2019-03-29T15:36:55.087Z,43.16
2019-03-29T15:39:22.902Z,44.20
2019-03-29T15:41:50.694Z,43.96
2019-03-29T15:44:18.503Z,45.42
2019-03-29T15:46:46.346Z,42.72
2019-03-29T15:49:14.169Z,43.05
2019-03-29T15:51:42.086Z,42.80
2019-03-29T15:54:09.902Z,43.97
2019-03-29T15:56:38.267Z,44.23
2019-03-29T15:59:06.099Z,45.28
2019-03-29T16:01:34.143Z,44.50
2019-03-29T16:04:02.043Z,44.93
2019-03-29T16:06:29.831Z,43.94
2019-03-29T16:08:57.706Z,43.82
2019-03-29T16:11:25.600Z,43.59
2019-03-29T16:13:53.402Z,44.79
2019-03-29T16:16:21.193Z,43.78
2019-03-29T16:18:49.013Z,43.70
2019-03-29T16:21:16.817Z,43.53
2019-03-29T16:23:44.634Z,43.06
2019-03-29T16:26:12.434Z,42.92
2019-03-29T16:28:40.227Z,43.63
2019-03-29T16:31:08.026Z,44.38
2019-03-29T16:33:35.839Z,42.67
2019-03-29T16:36:03.722Z,43.72
2019-03-29T16:38:31.549Z,44.10
2019-03-29T16:40:59.391Z,44.45
2019-03-29T16:43:27.198Z,44.10
2019-03-29T16:45:55.002Z,44.74
2019-03-29T16:48:22.806Z,44.72
2019-03-29T16:50:50.593Z,45.55
2019-03-29T16:53:18.401Z,45.69
2019-03-29T16:55:46.194Z,45.13
2019-03-29T16:58:13.997Z,45.21
2019-03-29T17:00:41.787Z,43.78
2019-03-29T17:03:09.583Z,44.58
2019-03-29T17:05:37.366Z,44.65
2019-03-29T17:08:05.631Z,46.94
2019-03-29T17:10:32.973Z,48.14
2019-03-29T17:13:00.779Z,48.34
2019-03-29T17:15:28.569Z,49.27
2019-03-29T17:17:56.354Z,50.00
2019-03-29T17:20:24.166Z,49.72
2019-03-29T17:22:51.978Z,50.78
2019-03-29T17:25:19.783Z,51.15
2019-03-29T17:27:47.789Z,51.33
2019-03-29T17:30:15.937Z,51.86
2019-03-29T17:32:43.718Z,51.16
2019-03-29T17:35:11.547Z,51.86
2019-03-29T17:37:39.326Z,51.25
2019-03-29T17:40:07.289Z,51.72
2019-03-29T17:42:35.102Z,51.28
2019-03-29T17:45:03.046Z,51.54
2019-03-29T17:47:30.838Z,52.88
2019-03-29T17:49:58.634Z,52.43
2019-03-29T17:52:26.553Z,53.74
2019-03-29T17:54:54.382Z,52.98
2019-03-29T17:57:22.168Z,53.62
2019-03-29T17:59:50.059Z,54.44
2019-03-29T18:02:17.747Z,55.43
2019-03-29T18:04:45.550Z,56.04
2019-03-29T18:07:13.329Z,56.80
2019-03-29T18:09:41.135Z,57.46
2019-03-29T18:12:11.411Z,56.33
2019-03-29T18:14:36.718Z,55.11
2019-03-29T18:17:04.554Z,54.17
2019-03-29T18:19:32.366Z,54.05
2019-03-29T18:22:00.174Z,54.79
2019-03-29T18:24:27.967Z,54.78
2019-03-29T18:26:55.767Z,56.02
2019-03-29T18:29:23.562Z,56.28
2019-03-29T18:31:51.366Z,56.58
2019-03-29T18:34:19.309Z,57.05
2019-03-29T18:36:47.115Z,56.39
2019-03-29T18:39:14.926Z,57.65
2019-03-29T18:41:42.707Z,57.79
2019-03-29T18:44:10.494Z,59.64
2019-03-29T18:46:44.455Z,60.74
2019-03-29T18:49:06.194Z,60.88
2019-03-29T18:51:34.007Z,59.79
2019-03-29T18:54:01.800Z,59.64
2019-03-29T18:56:29.595Z,59.94
2019-03-29T18:58:57.379Z,59.22
2019-03-29T19:01:25.202Z,59.72
2019-03-29T19:03:52.981Z,59.84
2019-03-29T19:06:20.780Z,59.01
2019-03-29T19:08:48.599Z,59.27
2019-03-29T19:11:16.399Z,58.62
2019-03-29T19:13:44.194Z,58.68
2019-03-29T19:16:12.022Z,57.61
2019-03-29T19:18:39.801Z,59.23
2019-03-29T19:21:07.654Z,60.19
2019-03-29T19:23:35.430Z,59.30
2019-03-29T19:26:03.222Z,58.84
2019-03-29T19:28:31.006Z,59.95
2019-03-29T19:30:58.818Z,60.04
2019-03-29T19:33:26.655Z,60.54
2019-03-29T19:35:54.449Z,59.34
2019-03-29T19:38:22.238Z,60.11
2019-03-29T19:40:50.079Z,58.71
2019-03-29T19:43:18.194Z,59.88
2019-03-29T19:45:46.002Z,59.95
2019-03-29T19:48:14.147Z,60.88
2019-03-29T19:53:08.228Z,60.23
2019-03-29T19:55:36.052Z,61.55
2019-03-29T19:58:04.040Z,61.89
2019-03-29T20:00:37.108Z,62.43
2019-03-29T20:03:04.971Z,63.61
2019-03-29T20:05:33.020Z,62.00
2019-03-29T20:08:00.899Z,62.07
2019-03-29T20:10:28.697Z,61.13
2019-03-29T20:12:56.490Z,63.56
2019-03-29T20:15:24.374Z,63.40
2019-03-29T20:17:52.277Z,63.98
2019-03-29T20:20:23.436Z,64.27
2019-03-29T20:22:52.235Z,65.33
2019-03-29T20:25:20.031Z,65.51
2019-03-29T20:27:47.810Z,66.04
2019-03-29T20:30:15.601Z,66.48
2019-03-29T20:32:43.382Z,66.98
2019-03-29T20:35:11.187Z,66.02
2019-03-29T20:37:38.998Z,66.74
2019-03-29T20:40:06.798Z,66.98
2019-03-29T20:42:34.602Z,67.04
2019-03-29T20:45:02.402Z,67.23
2019-03-29T20:47:41.272Z,66.44
2019-03-29T20:49:58.018Z,66.76
2019-03-29T20:52:25.882Z,66.82
2019-03-29T20:54:53.657Z,67.15
2019-03-29T20:57:21.596Z,66.91
2019-03-29T20:59:49.402Z,67.08
2019-03-29T21:02:17.222Z,67.78
2019-03-29T21:04:44.998Z,67.78
2019-03-29T21:07:12.805Z,67.90
2019-03-29T21:09:40.586Z,68.03
2019-03-29T21:12:08.382Z,67.78
2019-03-29T21:14:36.156Z,68.93
2019-03-29T21:17:03.949Z,69.87
2019-03-29T21:19:31.726Z,69.63
2019-03-29T21:21:59.543Z,68.43
2019-03-29T21:24:27.618Z,69.48
2019-03-29T21:26:55.482Z,68.55
2019-03-29T21:29:23.258Z,68.49
2019-03-29T21:31:51.086Z,69.40
2019-03-29T21:34:18.859Z,67.22
2019-03-29T21:36:46.665Z,69.24
2019-03-29T21:39:14.459Z,69.70
2019-03-29T21:41:42.298Z,70.19
2019-03-29T21:44:10.070Z,70.59
2019-03-29T21:46:37.876Z,70.97
2019-03-29T21:49:05.649Z,71.31
2019-03-29T21:51:33.461Z,70.98
2019-03-29T21:54:01.242Z,70.15
2019-03-29T21:56:29.038Z,68.78
2019-03-29T21:58:56.834Z,69.18
2019-03-29T22:01:24.654Z,68.24
2019-03-29T22:03:52.426Z,67.68
2019-03-29T22:06:20.333Z,69.24
2019-03-29T22:11:30.310Z,70.39
2019-03-29T22:13:58.107Z,70.00
2019-03-29T22:16:25.914Z,69.74
2019-03-29T22:18:53.701Z,70.48
2019-03-29T22:21:21.510Z,70.92
2019-03-29T22:23:49.317Z,69.85
2019-03-29T22:26:17.095Z,71.35
2019-03-29T22:28:44.882Z,71.52
2019-03-29T22:31:12.662Z,71.41
2019-03-29T22:33:40.494Z,71.86
2019-03-29T22:36:08.281Z,71.10
2019-03-29T22:38:36.074Z,72.43
2019-03-29T22:41:03.845Z,72.47
2019-03-29T22:43:31.723Z,72.48
2019-03-29T22:45:59.498Z,73.00
2019-03-29T22:48:27.355Z,74.48
2019-03-29T22:50:55.146Z,74.95
2019-03-29T22:53:22.945Z,75.04
2019-03-29T22:55:50.746Z,74.92
2019-03-29T22:58:18.547Z,75.24
2019-03-29T23:00:46.793Z,75.58
2019-03-29T23:03:14.609Z,74.94
2019-03-29T23:05:42.429Z,74.68
2019-03-29T23:08:10.369Z,74.34
2019-03-29T23:10:38.178Z,73.62
2019-03-29T23:13:06.007Z,72.24
2019-03-29T23:15:33.807Z,71.62
2019-03-29T23:18:01.622Z,72.29
2019-03-29T23:20:29.410Z,72.18
2019-03-29T23:22:57.254Z,74.42
2019-03-29T23:25:25.146Z,74.03
2019-03-29T23:27:52.963Z,75.48
2019-03-29T23:30:20.765Z,75.29
2019-03-29T23:32:48.561Z,75.46
2019-03-29T23:35:16.394Z,75.35
2019-03-29T23:37:44.303Z,73.88
2019-03-29T23:40:12.080Z,74.88
2019-03-29T23:42:39.873Z,76.54
2019-03-29T23:45:08.104Z,76.27
2019-03-29T23:47:35.938Z,75.66
2019-03-29T23:50:03.760Z,76.99
2019-03-29T23:52:31.569Z,76.61
2019-03-29T23:54:59.367Z,75.72
2019-03-29T23:57:27.166Z,76.94
2019-03-29T23:59:54.974Z,75.43
